Quick Links (Output Below):   Max & Min Temps   /   Climate Reports   /   Zone Forecasts
River Forecasts   /   Forestry Forecasts   /   Aviation Forecasts   /   Radars   /   Features

Terminal Aerodrome Forecast (Harrison)

Pick a Site:
Arkadelphia | El Dorado | Fayetteville | Fort Smith | Harrison | Highfill | Hot Springs | Jonesboro
Little Rock | Monticello | Mountain Home | Pine Bluff | Texarkana
 Forecast 

KHRO 172340Z 1800/1824 14008KT P6SM VCTS SCT040CB BKN250
     FM180200 14005KT P6SM SCT120 BKN250
      TEMPO 1811/1815 5SM BR BKN015
     FM181500 14007KT P6SM VCTS SCT030CB BKN060
      TEMPO 1815/1818 BKN025CB=


 Latest METARs (Observations) 
How to Decode METARs
02Z KHRO 180153Z AUTO 00000KT 10SM FEW080 18/16 A3000 RMK AO2 SLP152
         T01780156
         
01Z KHRO 180053Z AUTO 19005KT 10SM CLR 18/16 A2997 RMK AO2 SLP142
         T01830156
         
00Z KHRO 172353Z AUTO 17006KT 10SM CLR 20/17 A2999 RMK AO2 LTG DSNT W
         SLP150 60000 T02000167 10239 20200 55002
         
***** Today's Observations (Above) *****


23Z KHRO 172253Z AUTO 14010KT 10SM SCT075 22/17 A2999 RMK AO2 LTG DSNT
         S AND SW SLP148 T02170167
         
22Z KHRO 172153Z AUTO 14009KT 10SM FEW032 FEW043 SCT085 23/16 A2999
         RMK AO2 LTG DSNT S AND SW SLP147 T02280161
         
21Z KHRO 172053Z AUTO 07005KT 10SM FEW025 23/17 A3000 RMK AO2 LTG DSNT
         E RAE01 SLP149 P0000 60000 T02330167 58023
         
20Z KHRO 171953Z AUTO 05005KT 10SM -RA FEW034 SCT090 BKN110 22/17
         A3002 RMK AO2 LTG DSNT SE RAB47 SLP157 P0000 T02170167
         
19Z KHRO 171853Z AUTO 06008KT 10SM BKN047 BKN060 22/17 A3005 RMK AO2
         SLP168 T02170167
         
18Z KHRO 171753Z AUTO VRB05KT 10SM FEW024 BKN044 OVC070 21/16 A3007
         RMK AO2 LTG DSNT N SLP173 T02060161 10211 20139 58006
         
17Z KHRO 171653Z AUTO 11006KT 10SM SCT029 BKN036 OVC043 19/16 A3008
         RMK AO2 SLP178 T01940156
         
***** Yesterday's Observations (Above) *****


Back to Main Page
http://www.srh.noaa.gov/lzk/qfcst.php

USA.gov is the U.S. government's official web portal to all federal, state and local government web resources and services.